Details From KLWB - GREENBRIER VALLEY
To KCKB - HARRISON MARION RGNL
Flight Number -
Tags decoded
Created
Modified
Stats Distance 105 nm / 194 km
Max Altitude 0 ft / 0 m
Waypoints 7
Social Downloads 1
Likes 0
Share VATSIM

Download

Looking for another format? Having issues loading an existing format? Contact us
Advertisement - Login to hide

Notes

Requested: KLWB WV52 EKN W22 WV47 CKB KCKB

Route

KLWB WV52 EKN W22 WV47 CKB KCKB

ID Type Via Altitude Latitude Longitude Leg Dist Tot Dist Heading (true) Name
O KLWB APT - 0 ft / 0 m 37.85831˚ -80.39948˚ - 0 nm - GREENBRIER VALLEY
WV52 APT - 0 ft / 0 m 38.43056˚ -79.82583˚ 43 nm 43 nm 38° / 38° NRAO GREEN BANK
EKN VOR - 0 ft / 0 m 38.91444˚ -80.09928˚ 31 nm 75 nm 336° / 336° ELKINS VORTAC
W22 APT - 0 ft / 0 m 39.00059˚ -80.27495˚ 9 nm 85 nm 302° / 302° UPSHUR CO RGNL
WV47 APT - 0 ft / 0 m 39.13556˚ -80.21056˚ 8 nm 93 nm 20° / 20° REXROAD
CKB VOR - 0 ft / 0 m 39.25322˚ -80.26786˚ 7 nm 101 nm 339° / 339° CLARKSBURG VOR-DME
O KCKB APT - 0 ft / 0 m 39.29664˚ -80.22808˚ 3 nm 104 nm 35° / 35° HARRISON MARION RGNL

Altitude Profile

Advertisement - Login to hide

KLWB

Details ICAO KLWB (LWB)
Name GREENBRIER VALLEY
Region United States
Timezone America/New_York (UTC-5.0)
Stats Elevation 2,302 ft / 702 m (AMSL)
Location 37.858307° -80.399482°
Runways 1
Magnetic Variation 8.515° W

METAR

KLWB 150455Z AUTO 00000KT 10SM BKN027 M03/M06 A2998 RMK AO2 T10331061 400431035

Decode

TAF

TAF KLWB 142344Z 1500/1524 VRB04KT P6SM BKN025 OVC250 FM151200 00000KT P6SM -FZDZ OVC030 FM151500 26006KT P6SM BKN035

Decode

Departure Runways

ID Width Length Bearing (true) Bearing (mag) Surface Threshold Offset Overrun Length
04 151 ft / 46 m 7,007 ft / 2,136 m 35.18° 43.69° Asphalt 0 ft / 0 m 0 ft / 0 m
22 151 ft / 46 m 7,007 ft / 2,136 m 215.19° 223.70° Asphalt 0 ft / 0 m 0 ft / 0 m

KCKB

Details ICAO KCKB (CKB)
Name HARRISON MARION RGNL
Region United States
Timezone America/New_York (UTC-5.0)
Stats Elevation 1,217 ft / 371 m (AMSL)
Location 39.296642° -80.228080°
Runways 1
Magnetic Variation 8.908° W

METAR

KCKB 150453Z AUTO 00000KT 10SM OVC036 M03/M06 A3004 RMK AO2 SLP179 T10281061 400611028

Decode

TAF

TAF AMD KCKB 150302Z 1503/1524 00000KT P6SM OVC040 FM151600 24006KT P6SM BKN035 FM152300 25011G19KT P6SM BKN250

Decode

Destination Runways

ID Width Length Bearing (true) Bearing (mag) Surface Threshold Offset Overrun Length
03 151 ft / 46 m 7,008 ft / 2,136 m 22.75° 31.66° Asphalt 0 ft / 0 m 0 ft / 0 m
21 151 ft / 46 m 7,008 ft / 2,136 m 202.75° 211.66° Asphalt 0 ft / 0 m 0 ft / 0 m

Approach Navaids

Runway Type Ident Frequency Range Bearing (true) Bearing (mag) Slope Elevation
21 Localiser ICKB 109.30 MHz 18 nm / 33 km 202.74° 211.65° - 1,173 ft / 358 m (AMSL)
21 Glidescope ICKB 109.30 MHz 10 nm / 19 km 202.75° 211.66° 3.00° 1,208 ft / 368 m (AMSL)